createdAt,value
2022-11-20T00:03:27.253Z,5.80
2022-11-20T00:07:39.526Z,5.82
2022-11-20T00:11:51.776Z,5.84
2022-11-20T00:16:06.687Z,5.91
2022-11-20T00:20:19.031Z,5.82
2022-11-20T00:24:31.262Z,5.80
2022-11-20T00:28:44.824Z,5.83
2022-11-20T00:33:02.008Z,5.84
2022-11-20T00:37:14.300Z,5.78
2022-11-20T00:41:28.655Z,5.76
2022-11-20T00:45:42.196Z,5.70
2022-11-20T00:49:54.438Z,5.74
2022-11-20T00:54:07.047Z,5.67
2022-11-20T00:58:19.295Z,5.74
2022-11-20T01:02:31.525Z,5.67
2022-11-20T01:06:43.779Z,5.65
2022-11-20T01:11:00.897Z,5.64
2022-11-20T01:15:13.197Z,5.65
2022-11-20T01:19:26.009Z,5.57
2022-11-20T01:23:40.927Z,5.63
2022-11-20T01:27:53.151Z,5.60
2022-11-20T01:32:05.569Z,5.62
2022-11-20T01:36:19.459Z,5.69
2022-11-20T01:40:31.695Z,5.67
2022-11-20T01:44:56.857Z,5.66
2022-11-20T01:49:21.291Z,5.69
2022-11-20T01:53:38.350Z,5.65
2022-11-20T01:57:51.698Z,5.71
2022-11-20T02:02:03.960Z,5.65
2022-11-20T02:06:29.681Z,5.70
2022-11-20T02:10:41.931Z,5.66
2022-11-20T02:14:54.193Z,5.66
2022-11-20T02:19:11.550Z,5.79
2022-11-20T02:24:03.053Z,5.83
2022-11-20T02:28:15.347Z,5.81
2022-11-20T02:32:38.196Z,5.79
2022-11-20T02:36:51.823Z,5.80
2022-11-20T02:41:04.069Z,5.86
2022-11-20T02:45:16.291Z,5.80
2022-11-20T02:49:28.557Z,5.78
2022-11-20T02:53:41.575Z,5.82
2022-11-20T02:57:59.963Z,5.78
2022-11-20T03:02:12.209Z,5.83
2022-11-20T03:06:24.450Z,5.83
2022-11-20T03:10:36.670Z,5.80
2022-11-20T03:14:52.787Z,5.82
2022-11-20T03:19:05.609Z,5.75
2022-11-20T03:23:17.834Z,5.81
2022-11-20T03:27:34.368Z,5.74
2022-11-20T03:31:46.721Z,5.73
2022-11-20T03:36:03.506Z,5.72
2022-11-20T03:40:15.881Z,5.83
2022-11-20T03:44:28.102Z,5.77
2022-11-20T03:48:40.360Z,5.72
2022-11-20T03:52:52.662Z,5.71
2022-11-20T03:57:05.043Z,5.69
2022-11-20T04:01:23.747Z,5.77
2022-11-20T04:05:36.097Z,5.70
2022-11-20T04:09:48.334Z,5.70
2022-11-20T04:14:02.790Z,5.74
2022-11-20T04:18:15.122Z,5.74
2022-11-20T04:22:27.411Z,5.73
2022-11-20T04:26:40.220Z,5.72
2022-11-20T04:30:52.466Z,5.75
2022-11-20T04:35:11.274Z,5.72
2022-11-20T04:39:23.827Z,5.73
2022-11-20T04:43:36.277Z,5.75
2022-11-20T04:47:48.506Z,5.71
2022-11-20T04:52:00.746Z,5.76
2022-11-20T04:56:14.536Z,5.64
2022-11-20T05:00:26.767Z,5.71
2022-11-20T05:04:43.041Z,5.68
2022-11-20T05:08:55.273Z,5.68
2022-11-20T05:13:07.511Z,5.65
2022-11-20T05:17:19.869Z,5.62
2022-11-20T05:21:32.398Z,5.59
2022-11-20T05:25:44.628Z,5.73
2022-11-20T05:29:56.900Z,5.71
2022-11-20T05:34:09.342Z,5.67
2022-11-20T05:38:21.558Z,5.58
2022-11-20T05:42:34.007Z,5.52
2022-11-20T05:46:46.223Z,5.64
2022-11-20T05:51:00.092Z,5.58
2022-11-20T05:55:12.346Z,5.47
2022-11-20T05:59:24.599Z,5.46
2022-11-20T06:03:37.864Z,5.39
2022-11-20T06:07:50.102Z,5.44
2022-11-20T06:12:02.390Z,5.26
2022-11-20T06:16:17.426Z,5.32
2022-11-20T06:20:29.662Z,5.32
2022-11-20T06:24:41.898Z,5.22
2022-11-20T06:28:55.118Z,5.24
2022-11-20T06:33:07.334Z,5.21
2022-11-20T06:37:19.562Z,5.23
2022-11-20T06:41:32.031Z,5.25
2022-11-20T06:45:44.559Z,5.27
2022-11-20T06:49:56.798Z,5.28
2022-11-20T06:54:09.147Z,5.40
2022-11-20T06:58:21.390Z,5.42
2022-11-20T07:02:33.644Z,5.54
2022-11-20T07:06:45.854Z,5.58
2022-11-20T07:11:05.451Z,5.64
2022-11-20T07:15:17.739Z,5.69
2022-11-20T07:19:30.440Z,5.80
2022-11-20T07:23:42.708Z,5.82
2022-11-20T07:27:58.226Z,5.89
2022-11-20T07:32:10.449Z,5.90
2022-11-20T07:36:22.734Z,5.97
2022-11-20T07:40:34.964Z,5.93
2022-11-20T07:44:47.198Z,5.99
2022-11-20T07:48:59.482Z,6.14
2022-11-20T07:53:11.910Z,6.42
2022-11-20T07:57:28.128Z,6.47
2022-11-20T08:01:41.775Z,6.49
2022-11-20T08:05:54.302Z,6.54
2022-11-20T08:10:08.167Z,6.58
2022-11-20T08:14:20.414Z,6.68
2022-11-20T08:18:33.087Z,6.74
2022-11-20T08:22:45.739Z,6.82
2022-11-20T08:27:00.805Z,6.66
2022-11-20T08:31:13.050Z,6.46
2022-11-20T08:35:25.340Z,6.62
2022-11-20T08:39:37.572Z,6.58
2022-11-20T08:43:50.627Z,6.59
2022-11-20T08:48:04.567Z,6.71
2022-11-20T08:52:16.929Z,6.74
2022-11-20T08:56:29.483Z,6.75
2022-11-20T09:00:41.771Z,6.73
2022-11-20T09:04:55.131Z,6.78
2022-11-20T09:09:07.565Z,6.83
2022-11-20T09:13:20.496Z,6.83
2022-11-20T09:17:32.986Z,6.91
2022-11-20T09:21:45.243Z,6.93
2022-11-20T09:26:01.314Z,7.05
2022-11-20T09:30:15.327Z,7.22
2022-11-20T09:34:27.657Z,7.46
2022-11-20T09:38:39.931Z,7.70
2022-11-20T09:43:05.200Z,7.56
2022-11-20T09:47:32.085Z,7.69
2022-11-20T09:52:00.089Z,7.59
2022-11-20T09:56:14.346Z,7.52
2022-11-20T10:00:29.917Z,7.71
2022-11-20T10:04:49.049Z,7.68
2022-11-20T10:09:07.276Z,7.91
2022-11-20T10:13:23.317Z,7.73
2022-11-20T10:17:53.777Z,8.12
2022-11-20T10:23:00.151Z,8.24
2022-11-20T10:27:33.698Z,8.04
2022-11-20T10:32:06.500Z,8.11
2022-11-20T10:36:45.957Z,8.20
2022-11-20T10:41:23.208Z,8.54
2022-11-20T10:45:44.886Z,8.66
2022-11-20T10:50:02.630Z,8.94
2022-11-20T10:54:26.032Z,9.34
2022-11-20T10:59:09.986Z,9.63
2022-11-20T11:03:29.732Z,8.92
2022-11-20T11:07:43.164Z,8.96
2022-11-20T11:11:55.543Z,8.76
2022-11-20T11:16:07.794Z,8.62
2022-11-20T11:20:28.971Z,8.83
2022-11-20T11:24:53.859Z,8.99
2022-11-20T11:29:06.566Z,8.96
2022-11-20T11:33:31.246Z,8.77
2022-11-20T11:37:43.511Z,8.61
2022-11-20T11:41:55.942Z,8.30
2022-11-20T11:46:26.743Z,8.44
2022-11-20T11:50:49.927Z,8.24
2022-11-20T11:55:10.286Z,8.32
2022-11-20T11:59:48.884Z,8.38
2022-11-20T12:04:17.969Z,8.48
2022-11-20T12:08:58.777Z,8.79
2022-11-20T12:13:43.202Z,9.15
2022-11-20T12:17:55.553Z,7.78
2022-11-20T12:22:28.843Z,7.43
2022-11-20T12:27:02.868Z,7.62
2022-11-20T12:31:54.641Z,7.82
2022-11-20T12:36:19.277Z,8.12
2022-11-20T12:40:50.335Z,8.07
2022-11-20T12:45:17.333Z,7.86
2022-11-20T12:49:39.712Z,7.65
2022-11-20T12:54:08.692Z,7.66
2022-11-20T12:58:34.768Z,7.52
2022-11-20T13:03:18.974Z,7.60
2022-11-20T13:07:32.365Z,7.52
2022-11-20T13:12:07.755Z,7.43
2022-11-20T13:16:38.582Z,7.27
2022-11-20T13:20:51.418Z,7.33
2022-11-20T13:25:03.753Z,7.28
2022-11-20T13:29:20.833Z,7.20
2022-11-20T13:33:36.862Z,6.97
2022-11-20T13:37:49.196Z,6.89
2022-11-20T13:42:02.591Z,7.07
2022-11-20T13:46:14.983Z,7.09
2022-11-20T13:50:45.985Z,7.05
2022-11-20T13:55:04.102Z,6.90
2022-11-20T13:59:42.132Z,6.88
2022-11-20T14:04:10.386Z,7.06
2022-11-20T14:08:34.370Z,6.94
2022-11-20T14:12:56.802Z,7.00
2022-11-20T14:17:24.705Z,7.03
2022-11-20T14:21:36.970Z,6.92
2022-11-20T14:25:49.344Z,6.99
2022-11-20T14:30:02.782Z,6.97
2022-11-20T14:34:19.644Z,7.00
2022-11-20T14:38:34.297Z,6.88
2022-11-20T14:42:50.511Z,6.93
2022-11-20T14:47:05.339Z,6.92
2022-11-20T14:51:40.055Z,6.94
2022-11-20T14:56:03.786Z,6.87
2022-11-20T15:00:16.010Z,6.95
2022-11-20T15:04:28.451Z,6.98
2022-11-20T15:08:52.858Z,6.93
2022-11-20T15:13:38.466Z,6.91
2022-11-20T15:17:50.800Z,6.79
2022-11-20T15:22:03.510Z,6.74
2022-11-20T15:26:22.298Z,6.76
2022-11-20T15:30:34.657Z,6.71
2022-11-20T15:34:47.034Z,6.74
2022-11-20T15:38:59.370Z,6.67
2022-11-20T15:43:13.581Z,6.56
2022-11-20T15:47:33.097Z,6.45
2022-11-20T15:51:48.709Z,6.20
2022-11-20T15:56:01.115Z,5.81
2022-11-20T16:00:14.828Z,5.70
2022-11-20T16:04:28.633Z,5.71
2022-11-20T16:08:41.160Z,5.67
2022-11-20T16:13:20.346Z,5.65
2022-11-20T16:17:44.206Z,5.46
2022-11-20T16:22:02.252Z,5.41
2022-11-20T16:26:18.533Z,5.34
2022-11-20T16:30:30.891Z,5.15
2022-11-20T16:34:43.159Z,4.97
2022-11-20T16:38:57.332Z,4.95
2022-11-20T16:43:12.295Z,4.82
2022-11-20T16:47:24.797Z,4.72
2022-11-20T16:51:37.220Z,4.69
2022-11-20T16:55:49.676Z,4.45
2022-11-20T17:00:02.842Z,4.21
2022-11-20T17:04:15.508Z,4.11
2022-11-20T17:08:31.257Z,3.87
2022-11-20T17:12:44.714Z,3.60
2022-11-20T17:16:57.246Z,3.55
2022-11-20T17:21:09.578Z,3.44
2022-11-20T17:25:33.731Z,3.39
2022-11-20T17:29:46.174Z,3.43
2022-11-20T17:34:01.035Z,3.31
2022-11-20T17:38:13.302Z,3.21
2022-11-20T17:42:28.571Z,3.07
2022-11-20T17:46:41.917Z,3.06
2022-11-20T17:50:54.189Z,3.31
2022-11-20T17:55:06.961Z,3.22
2022-11-20T17:59:19.836Z,3.04
2022-11-20T18:03:32.106Z,2.98
2022-11-20T18:07:44.424Z,2.87
2022-11-20T18:11:56.877Z,2.94
2022-11-20T18:16:09.185Z,2.90
2022-11-20T18:20:29.003Z,2.94
2022-11-20T18:24:42.899Z,3.23
2022-11-20T18:28:55.359Z,3.38
2022-11-20T18:33:18.065Z,3.38
2022-11-20T18:37:32.602Z,3.55
2022-11-20T18:42:03.950Z,3.57
2022-11-20T18:46:26.221Z,3.88
2022-11-20T18:50:39.100Z,3.93
2022-11-20T18:54:52.100Z,4.25
2022-11-20T18:59:06.188Z,4.16
2022-11-20T19:03:18.513Z,4.21
2022-11-20T19:07:31.408Z,4.41
2022-11-20T19:11:44.417Z,4.34
2022-11-20T19:16:03.180Z,4.27
2022-11-20T19:20:15.639Z,4.43
2022-11-20T19:24:29.184Z,4.40
2022-11-20T19:28:41.662Z,4.16
2022-11-20T19:32:53.981Z,4.26
2022-11-20T19:37:06.358Z,4.41
2022-11-20T19:41:21.118Z,4.58
2022-11-20T19:45:33.479Z,4.42
2022-11-20T19:49:45.778Z,4.40
2022-11-20T19:53:59.277Z,4.56
2022-11-20T19:58:11.551Z,4.44
2022-11-20T20:02:23.830Z,4.40
2022-11-20T20:06:39.515Z,4.37
2022-11-20T20:10:56.636Z,4.30
2022-11-20T20:15:11.642Z,4.26
2022-11-20T20:19:24.149Z,4.31
2022-11-20T20:23:36.968Z,4.29
2022-11-20T20:27:49.294Z,4.11
2022-11-20T20:32:01.705Z,3.97
2022-11-20T20:36:16.700Z,3.94
2022-11-20T20:40:28.965Z,4.00
2022-11-20T20:44:59.959Z,3.88
2022-11-20T20:49:12.228Z,3.93
2022-11-20T20:53:25.270Z,3.94
2022-11-20T20:57:38.159Z,3.94
2022-11-20T21:01:50.464Z,3.88
2022-11-20T21:06:04.061Z,3.87
2022-11-20T21:10:21.066Z,3.93
2022-11-20T21:14:36.142Z,3.95
2022-11-20T21:18:49.219Z,4.07
2022-11-20T21:23:01.523Z,4.30
2022-11-20T21:27:13.838Z,4.38
2022-11-20T21:31:27.452Z,4.68
2022-11-20T21:35:39.767Z,4.92
2022-11-20T21:39:52.741Z,5.28
2022-11-20T21:48:40.636Z,5.82
2022-11-20T21:52:53.480Z,5.68
2022-11-20T21:57:05.753Z,5.55
2022-11-20T22:01:29.151Z,5.36
2022-11-20T22:05:41.643Z,5.03
2022-11-20T22:09:53.899Z,4.93
2022-11-20T22:14:21.680Z,4.86
2022-11-20T22:18:34.208Z,4.78
2022-11-20T22:22:46.503Z,4.81
2022-11-20T22:26:59.254Z,4.72
2022-11-20T22:31:11.997Z,4.75
2022-11-20T22:35:24.260Z,4.76
2022-11-20T22:39:37.625Z,4.84
2022-11-20T22:43:54.909Z,4.78
2022-11-20T22:48:07.250Z,4.70
2022-11-20T22:52:19.538Z,4.66
2022-11-20T22:56:39.850Z,4.55
2022-11-20T23:00:52.764Z,4.43
2022-11-20T23:05:05.289Z,4.39
2022-11-20T23:09:18.285Z,4.37
2022-11-20T23:13:31.035Z,4.45
2022-11-20T23:17:43.567Z,4.36
2022-11-20T23:21:55.851Z,4.33
2022-11-20T23:26:11.135Z,4.31
2022-11-20T23:30:23.428Z,4.34
2022-11-20T23:34:35.683Z,4.30
2022-11-20T23:38:48.087Z,4.39
2022-11-20T23:43:18.653Z,4.36
2022-11-20T23:47:30.918Z,4.40
2022-11-20T23:51:43.182Z,4.36
2022-11-20T23:55:59.336Z,4.42
